sensor_id;sensor_type;location;lat;lon;timestamp;pressure;altitude;pressure_sealevel;temperature;humidity
75697;BME280;64312;44.738;20.612;2022-10-31T00:01:01;101018.72;;;11.62;83.29
75697;BME280;64312;44.738;20.612;2022-10-31T00:03:27;101013.66;;;11.59;83.12
75697;BME280;64312;44.738;20.612;2022-10-31T00:05:53;101023.25;;;11.61;83.48
75697;BME280;64312;44.738;20.612;2022-10-31T00:08:19;101030.53;;;11.61;83.21
75697;BME280;64312;44.738;20.612;2022-10-31T00:10:45;101024.44;;;11.59;82.86
75697;BME280;64312;44.738;20.612;2022-10-31T00:13:12;101025.78;;;11.63;82.87
75697;BME280;64312;44.738;20.612;2022-10-31T00:15:39;101018.06;;;11.60;83.11
75697;BME280;64312;44.738;20.612;2022-10-31T00:18:06;101006.44;;;11.59;82.90
75697;BME280;64312;44.738;20.612;2022-10-31T00:20:35;101019.53;;;11.62;82.73
75697;BME280;64312;44.738;20.612;2022-10-31T00:23:01;101009.78;;;11.61;83.16
75697;BME280;64312;44.738;20.612;2022-10-31T00:25:28;101012.28;;;11.63;83.35
75697;BME280;64312;44.738;20.612;2022-10-31T00:27:54;101019.53;;;11.62;82.97
75697;BME280;64312;44.738;20.612;2022-10-31T00:30:20;101024.44;;;11.59;82.98
75697;BME280;64312;44.738;20.612;2022-10-31T00:32:45;101029.84;;;11.59;83.31
75697;BME280;64312;44.738;20.612;2022-10-31T00:35:11;101022.63;;;11.59;83.13
75697;BME280;64312;44.738;20.612;2022-10-31T00:37:37;101013.38;;;11.54;83.23
75697;BME280;64312;44.738;20.612;2022-10-31T00:40:03;101016.53;;;11.57;82.76
75697;BME280;64312;44.738;20.612;2022-10-31T00:42:29;101031.53;;;11.60;82.93
75697;BME280;64312;44.738;20.612;2022-10-31T00:44:57;101036.09;;;11.59;83.21
75697;BME280;64312;44.738;20.612;2022-10-31T00:47:22;101030.03;;;11.57;83.12
75697;BME280;64312;44.738;20.612;2022-10-31T00:49:48;101028.34;;;11.56;82.88
75697;BME280;64312;44.738;20.612;2022-10-31T00:52:14;101025.34;;;11.51;83.36
75697;BME280;64312;44.738;20.612;2022-10-31T00:54:39;101026.91;;;11.46;83.13
75697;BME280;64312;44.738;20.612;2022-10-31T00:57:05;101027.47;;;11.41;83.54
75697;BME280;64312;44.738;20.612;2022-10-31T00:59:31;101040.28;;;11.39;83.85
75697;BME280;64312;44.738;20.612;2022-10-31T01:01:56;101038.78;;;11.36;83.95
75697;BME280;64312;44.738;20.612;2022-10-31T01:04:22;101033.78;;;11.33;84.12
75697;BME280;64312;44.738;20.612;2022-10-31T01:06:48;101032.25;;;11.31;84.04
75697;BME280;64312;44.738;20.612;2022-10-31T01:09:16;101045.38;;;11.34;84.44
75697;BME280;64312;44.738;20.612;2022-10-31T01:11:42;101049.25;;;11.31;84.66
75697;BME280;64312;44.738;20.612;2022-10-31T01:14:09;101042.19;;;11.30;84.24
75697;BME280;64312;44.738;20.612;2022-10-31T01:16:34;101043.56;;;11.26;84.37
75697;BME280;64312;44.738;20.612;2022-10-31T01:19:00;101033.81;;;11.25;84.65
75697;BME280;64312;44.738;20.612;2022-10-31T01:21:27;101035.31;;;11.28;84.85
75697;BME280;64312;44.738;20.612;2022-10-31T01:23:57;101033.81;;;11.25;85.37
75697;BME280;64312;44.738;20.612;2022-10-31T01:26:28;101033.28;;;11.30;85.04
75697;BME280;64312;44.738;20.612;2022-10-31T01:29:06;101034.81;;;11.24;85.44
75697;BME280;64312;44.738;20.612;2022-10-31T01:31:37;101037.53;;;11.24;85.59
75697;BME280;64312;44.738;20.612;2022-10-31T01:34:06;101037.34;;;11.26;85.94
75697;BME280;64312;44.738;20.612;2022-10-31T01:36:37;101041.88;;;11.25;85.80
75697;BME280;64312;44.738;20.612;2022-10-31T01:39:11;101040.03;;;11.26;85.95
75697;BME280;64312;44.738;20.612;2022-10-31T01:41:40;101043.56;;;11.26;86.09
75697;BME280;64312;44.738;20.612;2022-10-31T01:49:24;101023.69;;;11.27;86.80
75697;BME280;64312;44.738;20.612;2022-10-31T01:51:58;101017.63;;;11.25;86.74
75697;BME280;64312;44.738;20.612;2022-10-31T01:54:31;101020.81;;;11.29;86.69
75697;BME280;64312;44.738;20.612;2022-10-31T01:57:02;101016.91;;;11.31;86.70
75697;BME280;64312;44.738;20.612;2022-10-31T01:59:38;101015.06;;;11.32;86.91
75697;BME280;64312;44.738;20.612;2022-10-31T02:02:08;101023.34;;;11.30;86.90
75697;BME280;64312;44.738;20.612;2022-10-31T02:04:35;101023.16;;;11.32;87.25
75697;BME280;64312;44.738;20.612;2022-10-31T02:07:15;101009.84;;;11.30;86.88
75697;BME280;64312;44.738;20.612;2022-10-31T02:09:42;101023.63;;;11.35;87.32
75697;BME280;64312;44.738;20.612;2022-10-31T02:12:09;101017.41;;;11.35;87.30
75697;BME280;64312;44.738;20.612;2022-10-31T02:14:37;101012.22;;;11.33;87.10
75697;BME280;64312;44.738;20.612;2022-10-31T02:17:03;101014.34;;;11.38;86.92
75697;BME280;64312;44.738;20.612;2022-10-31T02:34:10;101007.47;;;11.35;87.15
75697;BME280;64312;44.738;20.612;2022-10-31T02:39:25;101005.78;;;11.34;86.93
75697;BME280;64312;44.738;20.612;2022-10-31T02:47:03;101011.00;;;11.36;87.34
75697;BME280;64312;44.738;20.612;2022-10-31T02:52:00;101016.56;;;11.34;87.19
75697;BME280;64312;44.738;20.612;2022-10-31T02:54:28;101012.03;;;11.35;87.04
75697;BME280;64312;44.738;20.612;2022-10-31T02:57:04;101014.34;;;11.38;86.83
75697;BME280;64312;44.738;20.612;2022-10-31T02:59:32;101021.59;;;11.37;87.11
75697;BME280;64312;44.738;20.612;2022-10-31T03:13:10;101016.72;;;11.33;86.29
75697;BME280;64312;44.738;20.612;2022-10-31T03:19:08;101023.53;;;11.29;86.77
75697;BME280;64312;44.738;20.612;2022-10-31T03:21:42;101021.16;;;11.26;86.97
75697;BME280;64312;44.738;20.612;2022-10-31T03:24:10;101023.84;;;11.26;86.32
75697;BME280;64312;44.738;20.612;2022-10-31T03:26:40;101022.19;;;11.25;86.66
75697;BME280;64312;44.738;20.612;2022-10-31T03:29:09;101025.53;;;11.27;86.69
75697;BME280;64312;44.738;20.612;2022-10-31T03:34:33;101027.22;;;11.28;86.40
75697;BME280;64312;44.738;20.612;2022-10-31T03:37:10;101021.72;;;11.21;86.39
75697;BME280;64312;44.738;20.612;2022-10-31T03:39:38;101028.06;;;11.28;86.23
75697;BME280;64312;44.738;20.612;2022-10-31T03:42:14;101032.63;;;11.28;86.28
75697;BME280;64312;44.738;20.612;2022-10-31T03:44:43;101038.84;;;11.28;86.05
75697;BME280;64312;44.738;20.612;2022-10-31T03:47:11;101030.91;;;11.27;86.15
75697;BME280;64312;44.738;20.612;2022-10-31T03:49:38;101034.63;;;11.26;85.88
75697;BME280;64312;44.738;20.612;2022-10-31T03:52:16;101051.66;;;11.26;86.04
75697;BME280;64312;44.738;20.612;2022-10-31T03:54:50;101036.50;;;11.25;85.91
75697;BME280;64312;44.738;20.612;2022-10-31T03:57:33;101045.78;;;11.23;85.71
75697;BME280;64312;44.738;20.612;2022-10-31T04:00:08;101044.97;;;11.22;85.44
75697;BME280;64312;44.738;20.612;2022-10-31T04:03:06;101039.78;;;11.12;85.30
75697;BME280;64312;44.738;20.612;2022-10-31T04:05:36;101038.28;;;11.10;85.58
75697;BME280;64312;44.738;20.612;2022-10-31T04:08:05;101039.31;;;11.09;85.99
75697;BME280;64312;44.738;20.612;2022-10-31T04:10:33;101031.88;;;11.11;86.29
75697;BME280;64312;44.738;20.612;2022-10-31T04:13:04;101033.75;;;11.10;85.39
75697;BME280;64312;44.738;20.612;2022-10-31T04:15:43;101036.97;;;11.06;85.73
75697;BME280;64312;44.738;20.612;2022-10-31T04:18:10;101033.28;;;10.99;85.30
75697;BME280;64312;44.738;20.612;2022-10-31T04:20:41;101040.91;;;10.95;85.86
75697;BME280;64312;44.738;20.612;2022-10-31T04:23:22;101034.00;;;10.93;86.21
75697;BME280;64312;44.738;20.612;2022-10-31T04:25:50;101040.03;;;10.95;86.46
75697;BME280;64312;44.738;20.612;2022-10-31T04:28:16;101051.69;;;10.95;86.86
75697;BME280;64312;44.738;20.612;2022-10-31T04:30:42;101046.44;;;10.94;86.45
75697;BME280;64312;44.738;20.612;2022-10-31T04:33:11;101043.63;;;10.87;85.87
75697;BME280;64312;44.738;20.612;2022-10-31T04:35:37;101051.06;;;10.85;86.42
75697;BME280;64312;44.738;20.612;2022-10-31T04:38:04;101046.88;;;10.82;86.78
75697;BME280;64312;44.738;20.612;2022-10-31T04:40:32;101048.53;;;10.83;86.67
75697;BME280;64312;44.738;20.612;2022-10-31T04:43:26;101051.41;;;10.82;86.83
75697;BME280;64312;44.738;20.612;2022-10-31T04:45:52;101054.25;;;10.80;86.63
75697;BME280;64312;44.738;20.612;2022-10-31T04:48:18;101056.81;;;10.82;87.23
75697;BME280;64312;44.738;20.612;2022-10-31T04:50:44;101056.63;;;10.83;87.28
75697;BME280;64312;44.738;20.612;2022-10-31T04:53:10;101060.16;;;10.84;87.26
75697;BME280;64312;44.738;20.612;2022-10-31T04:55:50;101052.72;;;10.86;87.15
75697;BME280;64312;44.738;20.612;2022-10-31T04:58:20;101066.00;;;10.88;87.43
75697;BME280;64312;44.738;20.612;2022-10-31T05:00:54;101054.41;;;10.87;87.66
75697;BME280;64312;44.738;20.612;2022-10-31T05:03:20;101055.75;;;10.91;87.61
75697;BME280;64312;44.738;20.612;2022-10-31T05:05:46;101060.28;;;10.91;87.49
75697;BME280;64312;44.738;20.612;2022-10-31T05:08:12;101065.50;;;10.92;87.74
75697;BME280;64312;44.738;20.612;2022-10-31T05:10:38;101060.28;;;10.91;87.36
75697;BME280;64312;44.738;20.612;2022-10-31T05:13:04;101063.81;;;10.91;87.95
75697;BME280;64312;44.738;20.612;2022-10-31T05:15:49;101060.47;;;10.89;87.33
75697;BME280;64312;44.738;20.612;2022-10-31T05:18:34;101068.56;;;10.81;87.56
75697;BME280;64312;44.738;20.612;2022-10-31T05:21:20;101074.50;;;10.68;87.39
75697;BME280;64312;44.738;20.612;2022-10-31T05:23:52;101074.91;;;10.57;87.38
75697;BME280;64312;44.738;20.612;2022-10-31T05:26:19;101076.94;;;10.47;87.51
75697;BME280;64312;44.738;20.612;2022-10-31T05:28:52;101084.19;;;10.46;88.21
75697;BME280;64312;44.738;20.612;2022-10-31T05:31:18;101080.16;;;10.42;88.33
75697;BME280;64312;44.738;20.612;2022-10-31T05:33:44;101087.91;;;10.45;88.46
75697;BME280;64312;44.738;20.612;2022-10-31T05:36:28;101074.09;;;10.40;88.64
75697;BME280;64312;44.738;20.612;2022-10-31T05:39:21;101080.97;;;10.43;88.93
75697;BME280;64312;44.738;20.612;2022-10-31T05:41:53;101077.13;;;10.45;88.79
75697;BME280;64312;44.738;20.612;2022-10-31T05:44:21;101088.53;;;10.55;89.53
75697;BME280;64312;44.738;20.612;2022-10-31T05:47:07;101090.69;;;10.60;89.61
75697;BME280;64312;44.738;20.612;2022-10-31T05:50:11;101092.69;;;10.66;89.69
75697;BME280;64312;44.738;20.612;2022-10-31T05:53:05;101084.28;;;10.69;89.57
75697;BME280;64312;44.738;20.612;2022-10-31T05:55:36;101088.28;;;10.73;89.48
75697;BME280;64312;44.738;20.612;2022-10-31T05:58:07;101088.81;;;10.77;89.81
75697;BME280;64312;44.738;20.612;2022-10-31T06:00:36;101089.97;;;10.82;89.64
75697;BME280;64312;44.738;20.612;2022-10-31T06:03:08;101093.97;;;10.87;89.77
75697;BME280;64312;44.738;20.612;2022-10-31T06:05:44;101087.56;;;10.88;89.02
75697;BME280;64312;44.738;20.612;2022-10-31T06:08:10;101088.25;;;10.90;89.24
75697;BME280;64312;44.738;20.612;2022-10-31T06:10:39;101091.78;;;10.90;89.00
75697;BME280;64312;44.738;20.612;2022-10-31T06:13:05;101093.94;;;10.95;88.95
75697;BME280;64312;44.738;20.612;2022-10-31T06:15:54;101098.97;;;10.98;89.22
75697;BME280;64312;44.738;20.612;2022-10-31T06:18:23;101099.63;;;11.00;88.89
75697;BME280;64312;44.738;20.612;2022-10-31T06:20:50;101099.81;;;10.98;88.46
75697;BME280;64312;44.738;20.612;2022-10-31T06:23:16;101101.16;;;10.94;88.18
75697;BME280;64312;44.738;20.612;2022-10-31T06:25:48;101094.16;;;10.85;88.11
75697;BME280;64312;44.738;20.612;2022-10-31T06:28:17;101100.22;;;10.79;88.05
75697;BME280;64312;44.738;20.612;2022-10-31T06:31:09;101119.09;;;10.79;88.10
75697;BME280;64312;44.738;20.612;2022-10-31T06:33:35;101111.53;;;10.74;88.65
75697;BME280;64312;44.738;20.612;2022-10-31T06:36:04;101114.38;;;10.73;88.66
75697;BME280;64312;44.738;20.612;2022-10-31T06:38:30;101120.63;;;10.73;88.44
75697;BME280;64312;44.738;20.612;2022-10-31T06:41:02;101124.66;;;10.77;88.48
75697;BME280;64312;44.738;20.612;2022-10-31T06:43:37;101129.03;;;10.78;88.84
75697;BME280;64312;44.738;20.612;2022-10-31T06:46:22;101118.44;;;10.77;88.92
75697;BME280;64312;44.738;20.612;2022-10-31T06:49:00;101111.66;;;10.81;88.79
75697;BME280;64312;44.738;20.612;2022-10-31T06:51:47;101120.38;;;10.91;88.84
75697;BME280;64312;44.738;20.612;2022-10-31T06:54:15;101114.63;;;10.94;88.77
75697;BME280;64312;44.738;20.612;2022-10-31T06:56:41;101116.47;;;11.02;89.12
75697;BME280;64312;44.738;20.612;2022-10-31T06:59:10;101130.03;;;11.17;88.50
75697;BME280;64312;44.738;20.612;2022-10-31T07:02:08;101122.09;;;11.23;89.02
75697;BME280;64312;44.738;20.612;2022-10-31T07:04:34;101127.13;;;11.26;88.27
75697;BME280;64312;44.738;20.612;2022-10-31T07:07:00;101122.41;;;11.28;88.32
75697;BME280;64312;44.738;20.612;2022-10-31T07:09:26;101126.91;;;11.36;88.22
75697;BME280;64312;44.738;20.612;2022-10-31T07:12:00;101126.03;;;11.44;88.12
75697;BME280;64312;44.738;20.612;2022-10-31T07:14:28;101119.41;;;11.46;88.03
75697;BME280;64312;44.738;20.612;2022-10-31T07:16:53;101127.47;;;11.54;88.25
75697;BME280;64312;44.738;20.612;2022-10-31T07:19:25;101119.84;;;11.58;87.69
75697;BME280;64312;44.738;20.612;2022-10-31T07:21:51;101121.66;;;11.65;87.82
75697;BME280;64312;44.738;20.612;2022-10-31T07:24:16;101125.34;;;11.73;87.59
75697;BME280;64312;44.738;20.612;2022-10-31T07:26:42;101130.16;;;11.77;87.22
75697;BME280;64312;44.738;20.612;2022-10-31T07:29:13;101124.97;;;11.76;86.14
75697;BME280;64312;44.738;20.612;2022-10-31T07:31:39;101126.31;;;11.72;85.68
75697;BME280;64312;44.738;20.612;2022-10-31T07:34:11;101124.41;;;11.57;84.49
75697;BME280;64312;44.738;20.612;2022-10-31T07:36:56;101117.41;;;11.48;85.55
75697;BME280;64312;44.738;20.612;2022-10-31T07:39:21;101117.59;;;11.47;85.75
75697;BME280;64312;44.738;20.612;2022-10-31T07:41:47;101120.28;;;11.47;85.94
75697;BME280;64312;44.738;20.612;2022-10-31T07:44:17;101134.88;;;11.52;86.01
75697;BME280;64312;44.738;20.612;2022-10-31T07:46:52;101124.91;;;11.61;86.59
75697;BME280;64312;44.738;20.612;2022-10-31T07:49:36;101131.06;;;11.70;86.61
75697;BME280;64312;44.738;20.612;2022-10-31T07:52:20;101136.94;;;11.81;86.77
75697;BME280;64312;44.738;20.612;2022-10-31T07:55:18;101131.28;;;11.91;86.05
75697;BME280;64312;44.738;20.612;2022-10-31T07:57:55;101137.81;;;11.97;85.60
75697;BME280;64312;44.738;20.612;2022-10-31T08:00:21;101135.22;;;12.03;85.49
75697;BME280;64312;44.738;20.612;2022-10-31T08:02:48;101134.69;;;12.08;84.86
75697;BME280;64312;44.738;20.612;2022-10-31T08:05:39;101132.09;;;12.14;84.59
75697;BME280;64312;44.738;20.612;2022-10-31T08:08:35;101137.41;;;12.23;84.10
75697;BME280;64312;44.738;20.612;2022-10-31T08:11:01;101127.09;;;12.26;84.61
75697;BME280;64312;44.738;20.612;2022-10-31T08:13:28;101126.09;;;12.27;83.47
75697;BME280;64312;44.738;20.612;2022-10-31T08:15:54;101128.06;;;12.33;83.53
75697;BME280;64312;44.738;20.612;2022-10-31T08:18:24;101124.81;;;12.38;83.86
75697;BME280;64312;44.738;20.612;2022-10-31T08:20:50;101116.72;;;12.38;83.08
75697;BME280;64312;44.738;20.612;2022-10-31T08:23:16;101121.09;;;12.39;82.72
75697;BME280;64312;44.738;20.612;2022-10-31T08:25:46;101130.66;;;12.41;82.68
75697;BME280;64312;44.738;20.612;2022-10-31T08:28:14;101126.47;;;12.39;82.48
75697;BME280;64312;44.738;20.612;2022-10-31T08:30:42;101119.31;;;12.31;81.47
75697;BME280;64312;44.738;20.612;2022-10-31T08:33:40;101117.63;;;12.30;82.09
75697;BME280;64312;44.738;20.612;2022-10-31T08:36:18;101117.84;;;12.43;82.76
75697;BME280;64312;44.738;20.612;2022-10-31T08:38:52;101122.59;;;12.56;82.73
75697;BME280;64312;44.738;20.612;2022-10-31T08:41:17;101129.19;;;12.68;82.41
75697;BME280;64312;44.738;20.612;2022-10-31T08:43:44;101122.03;;;12.76;82.23
75697;BME280;64312;44.738;20.612;2022-10-31T08:46:10;101117.56;;;12.83;82.32
75697;BME280;64312;44.738;20.612;2022-10-31T08:48:36;101116.91;;;12.95;82.02
75697;BME280;64312;44.738;20.612;2022-10-31T08:51:03;101114.53;;;13.07;81.50
75697;BME280;64312;44.738;20.612;2022-10-31T08:53:36;101119.28;;;13.20;81.52
75697;BME280;64312;44.738;20.612;2022-10-31T08:56:29;101114.53;;;13.37;81.33
75697;BME280;64312;44.738;20.612;2022-10-31T08:58:55;101121.31;;;13.47;81.05
75697;BME280;64312;44.738;20.612;2022-10-31T09:01:30;101124.16;;;13.61;80.61
75697;BME280;64312;44.738;20.612;2022-10-31T09:03:57;101127.00;;;13.74;79.79
75697;BME280;64312;44.738;20.612;2022-10-31T09:06:22;101117.38;;;13.71;77.93
75697;BME280;64312;44.738;20.612;2022-10-31T09:08:48;101120.69;;;13.67;78.32
75697;BME280;64312;44.738;20.612;2022-10-31T09:11:18;101119.19;;;13.64;78.05
75697;BME280;64312;44.738;20.612;2022-10-31T09:14:04;101119.00;;;13.66;78.46
75697;BME280;64312;44.738;20.612;2022-10-31T09:16:51;101118.63;;;13.69;78.33
75697;BME280;64312;44.738;20.612;2022-10-31T09:19:21;101119.91;;;13.73;78.71
75697;BME280;64312;44.738;20.612;2022-10-31T09:21:46;101119.16;;;13.79;78.55
75697;BME280;64312;44.738;20.612;2022-10-31T09:24:15;101106.50;;;13.86;78.27
75697;BME280;64312;44.738;20.612;2022-10-31T09:26:41;101112.19;;;13.91;78.05
75697;BME280;64312;44.738;20.612;2022-10-31T09:29:14;101110.47;;;13.90;77.42
75697;BME280;64312;44.738;20.612;2022-10-31T09:31:44;101103.03;;;13.92;77.67
75697;BME280;64312;44.738;20.612;2022-10-31T09:34:27;101106.56;;;13.93;nan
75697;BME280;64312;44.738;20.612;2022-10-31T09:37:04;101115.53;;;13.93;77.00
75697;BME280;64312;44.738;20.612;2022-10-31T09:39:33;101106.56;;;13.93;77.86
75697;BME280;64312;44.738;20.612;2022-10-31T09:42:20;101104.63;;;13.87;77.35
75697;BME280;64312;44.738;20.612;2022-10-31T09:50:48;101119.69;;;13.96;78.37
75697;BME280;64312;44.738;20.612;2022-10-31T09:56:31;101121.84;;;14.00;79.41
75697;BME280;64312;44.738;20.612;2022-10-31T09:59:00;101114.34;;;14.02;79.47
75697;BME280;64312;44.738;20.612;2022-10-31T10:02:30;101112.56;;;14.16;79.53
75697;BME280;64312;44.738;20.612;2022-10-31T10:04:41;101115.00;;;14.32;79.21
75697;BME280;64312;44.738;20.612;2022-10-31T10:07:21;101118.34;;;14.56;79.15
75697;BME280;64312;44.738;20.612;2022-10-31T10:10:26;101118.25;;;14.77;78.66
75697;BME280;64312;44.738;20.612;2022-10-31T10:16:17;101124.47;;;15.12;76.99
75697;BME280;64312;44.738;20.612;2022-10-31T10:22:29;101104.53;;;15.27;76.68
75697;BME280;64312;44.738;20.612;2022-10-31T10:29:50;101107.28;;;15.47;75.43
75697;BME280;64312;44.738;20.612;2022-10-31T10:32:30;101089.72;;;15.42;75.09
75697;BME280;64312;44.738;20.612;2022-10-31T10:35:17;101100.38;;;15.51;75.17
75697;BME280;64312;44.738;20.612;2022-10-31T10:37:46;101101.88;;;15.47;74.21
75697;BME280;64312;44.738;20.612;2022-10-31T10:40:25;101102.88;;;15.45;73.77
75697;BME280;64312;44.738;20.612;2022-10-31T10:42:57;101097.50;;;15.59;75.04
75697;BME280;64312;44.738;20.612;2022-10-31T10:45:46;101106.53;;;15.73;74.68
75697;BME280;64312;44.738;20.612;2022-10-31T10:54:23;101087.72;;;15.78;75.29
75697;BME280;64312;44.738;20.612;2022-10-31T10:57:55;101092.34;;;15.97;75.31
75697;BME280;64312;44.738;20.612;2022-10-31T10:59:50;101090.88;;;15.94;74.07
75697;BME280;64312;44.738;20.612;2022-10-31T11:02:23;101092.34;;;15.90;73.27
75697;BME280;64312;44.738;20.612;2022-10-31T11:04:51;101089.22;;;15.87;73.58
75697;BME280;64312;44.738;20.612;2022-10-31T11:07:18;101092.75;;;15.81;73.59
75697;BME280;64312;44.738;20.612;2022-10-31T11:09:44;101091.94;;;15.80;73.67
75697;BME280;64312;44.738;20.612;2022-10-31T11:12:10;101092.75;;;15.81;73.83
75697;BME280;64312;44.738;20.612;2022-10-31T11:14:53;101085.06;;;15.91;74.86
75697;BME280;64312;44.738;20.612;2022-10-31T11:17:31;101079.81;;;16.03;74.72
75697;BME280;64312;44.738;20.612;2022-10-31T11:20:23;101077.09;;;16.03;74.31
75697;BME280;64312;44.738;20.612;2022-10-31T11:23:04;101076.47;;;16.01;74.04
75697;BME280;64312;44.738;20.612;2022-10-31T11:25:31;101067.91;;;15.97;73.88
75697;BME280;64312;44.738;20.612;2022-10-31T11:28:05;101063.50;;;15.96;73.19
75697;BME280;64312;44.738;20.612;2022-10-31T11:30:46;101063.72;;;15.94;73.79
75697;BME280;64312;44.738;20.612;2022-10-31T11:33:19;101054.97;;;15.99;73.65
75697;BME280;64312;44.738;20.612;2022-10-31T11:35:47;101049.94;;;16.03;73.69
75697;BME280;64312;44.738;20.612;2022-10-31T11:38:22;101051.63;;;16.04;73.05
75697;BME280;64312;44.738;20.612;2022-10-31T11:40:54;101047.88;;;16.05;73.26
75697;BME280;64312;44.738;20.612;2022-10-31T11:43:22;101036.16;;;16.04;73.51
75697;BME280;64312;44.738;20.612;2022-10-31T11:45:48;101035.50;;;16.09;73.42
75697;BME280;64312;44.738;20.612;2022-10-31T11:48:22;101028.38;;;16.21;73.19
75697;BME280;64312;44.738;20.612;2022-10-31T11:50:55;101019.41;;;16.20;72.98
75697;BME280;64312;44.738;20.612;2022-10-31T11:53:32;101015.44;;;16.23;72.99
75697;BME280;64312;44.738;20.612;2022-10-31T11:56:13;101009.16;;;16.22;72.59
75697;BME280;64312;44.738;20.612;2022-10-31T12:01:51;101016.50;;;16.09;71.90
75697;BME280;64312;44.738;20.612;2022-10-31T12:04:17;101008.16;;;15.97;72.27
75697;BME280;64312;44.738;20.612;2022-10-31T12:06:44;100995.63;;;15.89;72.02
75697;BME280;64312;44.738;20.612;2022-10-31T12:17:13;100995.25;;;15.66;72.78
75697;BME280;64312;44.738;20.612;2022-10-31T12:23:01;100998.13;;;15.64;73.39
75697;BME280;64312;44.738;20.612;2022-10-31T12:28:31;100996.69;;;15.62;73.63
75697;BME280;64312;44.738;20.612;2022-10-31T12:31:09;101001.91;;;15.63;73.85
75697;BME280;64312;44.738;20.612;2022-10-31T12:33:47;101001.25;;;15.61;73.74
75697;BME280;64312;44.738;20.612;2022-10-31T12:50:11;101002.50;;;16.18;74.28
75697;BME280;64312;44.738;20.612;2022-10-31T12:57:42;101005.16;;;16.45;73.54
75697;BME280;64312;44.738;20.612;2022-10-31T13:00:17;100997.81;;;16.52;73.13
75697;BME280;64312;44.738;20.612;2022-10-31T13:02:57;101003.41;;;16.64;72.88
75697;BME280;64312;44.738;20.612;2022-10-31T13:05:31;100997.97;;;16.70;72.34
75697;BME280;64312;44.738;20.612;2022-10-31T13:08:20;100996.66;;;16.79;72.16
75697;BME280;64312;44.738;20.612;2022-10-31T13:13:37;100989.94;;;16.89;71.24
75697;BME280;64312;44.738;20.612;2022-10-31T13:16:15;100999.13;;;16.94;71.37
75697;BME280;64312;44.738;20.612;2022-10-31T13:22:17;101000.97;;;17.00;71.31
75697;BME280;64312;44.738;20.612;2022-10-31T13:27:03;101005.50;;;17.13;71.02
75697;BME280;64312;44.738;20.612;2022-10-31T13:29:42;100994.78;;;17.18;70.34
75697;BME280;64312;44.738;20.612;2022-10-31T13:32:10;100999.16;;;17.19;70.35
75697;BME280;64312;44.738;20.612;2022-10-31T13:34:42;100989.16;;;17.20;70.48
75697;BME280;64312;44.738;20.612;2022-10-31T13:42:45;100995.75;;;17.30;70.04
75697;BME280;64312;44.738;20.612;2022-10-31T13:45:19;100992.38;;;17.35;69.91
75697;BME280;64312;44.738;20.612;2022-10-31T13:50:41;100984.16;;;17.42;69.89
75697;BME280;64312;44.738;20.612;2022-10-31T13:55:44;100982.69;;;17.46;69.45
75697;BME280;64312;44.738;20.612;2022-10-31T13:58:23;100977.84;;;17.48;69.28
75697;BME280;64312;44.738;20.612;2022-10-31T14:01:21;100981.41;;;17.48;69.13
75697;BME280;64312;44.738;20.612;2022-10-31T14:04:14;100982.22;;;17.49;69.44
75697;BME280;64312;44.738;20.612;2022-10-31T14:06:45;100977.84;;;17.48;69.31
75697;BME280;64312;44.738;20.612;2022-10-31T14:09:23;100975.94;;;17.48;69.36
75697;BME280;64312;44.738;20.612;2022-10-31T14:11:50;100973.47;;;17.47;69.20
75697;BME280;64312;44.738;20.612;2022-10-31T14:14:18;100970.97;;;17.45;69.29
75697;BME280;64312;44.738;20.612;2022-10-31T14:16:45;100967.38;;;17.45;69.36
75697;BME280;64312;44.738;20.612;2022-10-31T14:19:17;100970.56;;;17.42;69.22
75697;BME280;64312;44.738;20.612;2022-10-31T14:21:45;100963.88;;;17.38;69.42
75697;BME280;64312;44.738;20.612;2022-10-31T14:24:31;100971.91;;;17.32;69.25
75697;BME280;64312;44.738;20.612;2022-10-31T14:27:32;100968.53;;;17.30;69.25
75697;BME280;64312;44.738;20.612;2022-10-31T14:29:51;100969.41;;;17.24;69.41
75697;BME280;64312;44.738;20.612;2022-10-31T14:32:24;100980.75;;;17.21;69.38
75697;BME280;64312;44.738;20.612;2022-10-31T14:34:57;100983.28;;;17.16;69.62
75697;BME280;64312;44.738;20.612;2022-10-31T14:40:41;100985.25;;;17.02;69.77
75697;BME280;64312;44.738;20.612;2022-10-31T14:46:33;100982.44;;;16.84;69.89
75697;BME280;64312;44.738;20.612;2022-10-31T14:49:26;100986.25;;;16.76;70.34
75697;BME280;64312;44.738;20.612;2022-10-31T14:51:56;100979.31;;;16.67;70.38
75697;BME280;64312;44.738;20.612;2022-10-31T14:54:29;100975.19;;;16.58;70.64
75697;BME280;64312;44.738;20.612;2022-10-31T14:57:02;100974.81;;;16.48;70.99
75697;BME280;64312;44.738;20.612;2022-10-31T14:59:32;100980.72;;;16.38;71.11
75697;BME280;64312;44.738;20.612;2022-10-31T15:02:17;100974.03;;;16.28;71.19
75697;BME280;64312;44.738;20.612;2022-10-31T15:04:46;100980.97;;;16.17;71.55
75697;BME280;64312;44.738;20.612;2022-10-31T15:07:27;100976.19;;;16.06;71.65
75697;BME280;64312;44.738;20.612;2022-10-31T15:10:21;100974.94;;;15.95;71.85
75697;BME280;64312;44.738;20.612;2022-10-31T15:12:47;100977.28;;;15.85;72.10
75697;BME280;64312;44.738;20.612;2022-10-31T15:15:22;100978.31;;;15.77;72.40
75697;BME280;64312;44.738;20.612;2022-10-31T15:17:55;100976.84;;;15.68;72.60
75697;BME280;64312;44.738;20.612;2022-10-31T15:20:23;100978.50;;;15.56;72.67
75697;BME280;64312;44.738;20.612;2022-10-31T15:22:50;100967.84;;;15.48;72.70
75697;BME280;64312;44.738;20.612;2022-10-31T15:25:20;100978.06;;;15.39;73.36